Overview Statistics Trail Chart Weather Telemetry Raw packets
 

This is the latest recevied weather packets stored in our database for station/object W4MLN-3. If no packets are shown the sender has not sent any weather packets the latest 10 day(s).

<< 1 2 3 4 5 6 >>
Time Temp. Humidity Pressure Rain* Wind** Luminosity Snow
1788633903 23.33° C 68% 1015.6 hPa 0 mm - - -
1788633603 23.33° C 69% 1015.8 hPa 0 mm - - -
1788633324 22.78° C 70% 1015.9 hPa 0 mm - - -
1788633024 22.22° C 71% 1016 hPa 0 mm - - -
1788632703 22.22° C 73% 1016.1 hPa 0.25 mm - - -
1788632403 21.67° C 75% 1016.4 hPa 0.51 mm - - -
1788632103 21.11° C 77% 1016.6 hPa 0.51 mm - - -
1788631803 20.56° C 79% 1016.8 hPa 0.51 mm - - -
1788631503 20.56° C 81% 1017.1 hPa 0.51 mm - - -
1788631224 20.56° C 85% 1017.2 hPa 0.51 mm - - -
1788630903 20.56° C 84% 1017 hPa 0.51 mm - - -
1788630603 20.56° C 84% 1017.2 hPa 0.51 mm - - -
1788630303 21.11° C 82% 1017.2 hPa 0.51 mm - - -
1788630003 21.11° C 81% 1017.5 hPa 0.51 mm - - -
1788629703 21.11° C 76% 1017.9 hPa 0.51 mm - - -
1788629403 21.67° C 77% 1018.2 hPa 0.51 mm - - -
1788629103 22.22° C 74% 1018.5 hPa 0.25 mm - - -
1788628803 22.78° C 71% 1018.7 hPa 0 mm - - -
1788628503 22.78° C 69% 1018.8 hPa 0 mm - - -
1788628203 23.33° C 67% 1018.9 hPa 0 mm - - -
1788627903 23.33° C 65% 1019.2 hPa 0 mm - - -
1788627603 23.89° C 64% 1019.4 hPa 0 mm - - -
1788627303 24.44° C 63% 1019.2 hPa 0 mm - - -
1788627003 24.44° C 62% 1019 hPa 0 mm - - -
1788626703 25° C 62% 1019 hPa 0 mm - - -

* Rain latest hour (hover to see other rain measurements)
** Current wind speed in m/s (hover to see current wind gust speed)